Station: Giles*  

  Atmospheric Gas Attenuation - ITU Rec 676-11   ----------------- dB/100km -----------------
Date Time Temp RH % AH g/m3 Dew Point Wind Direction Speed kph Gust kph Barometer mB Rainfall Since 9am 24GHz 47GHz 76GHz 122GHz 134GHz 241GHz
08/05 11:00 16.1 41 5.62 2.9 28 39 1026.8 0 13.2 21.3 28.2 73.3 60.2 204.6
08/05 10:50 15.7 41 5.49 2.5 35 39 1027 0 12.9 21.2 27.9 72.5 59.0 200.4
08/05 10:40 15.9 42 5.69 3 26 32 1027.1 0 13.3 21.4 28.5 74.2 61.2 208.0
08/05 10:30 15.6 42 5.59 2.7 28 37 1027.1 0 13.1 21.3 28.3 73.5 60.2 204.7
08/05 10:20 15.6 43 5.72 3.1 26 32 1027.3 0 13.4 21.5 28.8 74.8 61.8 210.1
08/05 10:10 15.4 44 5.78 3.2 30 37 1027.3 0 13.5 21.7 29.0 75.5 62.6 213.0
08/05 10:00 14.9 45 5.74 3.1 32 39 1027.1 0 13.5 21.7 29.1 75.6 62.5 212.7
08/05 09:50 14.7 46 5.79 3.2 33 41 1027.1 0 13.6 21.8 29.3 76.2 63.3 215.3
08/05 09:40 14.5 46 5.72 3 32 37 1027.1 0 13.4 21.8 29.1 75.8 62.6 212.9
08/05 09:30 14.3 47 5.77 3.2 32 43 1027 0 13.6 21.9 29.4 76.4 63.3 215.5
08/05 09:20 14.2 48 5.86 3.4 30 35 1027 0 13.7 22.1 29.7 77.4 64.5 219.5
08/05 09:10 14.1 48 5.83 3.3 26 33 1027.1 0 13.7 22.0 29.7 77.2 64.2 218.5
08/05 09:00 13.6 50 5.88 3.4 28 41 1026.8 0 13.8 22.2 30.0 78.1 65.2 221.9
08/05 08:50 13.4 51 5.93 3.5 26 33 1026.7 0 13.9 22.3 30.3 78.8 66.0 224.6
08/05 08:40 13.2 51 5.86 3.3 26 32 1026.6 0 13.8 22.3 30.1 78.3 65.3 222.2
08/05 08:30 13 52 5.9 3.4 20 30 1026.6 0 13.9 22.4 30.3 78.9 65.9 224.4
08/05 08:20 12.8 52 5.83 3.2 19 24 1026.5 0 13.7 22.3 30.1 78.4 65.2 222.0
08/05 08:10 12.3 54 5.86 3.3 17 22 1026.5 0 13.8 22.5 30.4 79.2 66.0 224.6
08/05 08:00 11.8 56 5.89 3.3 20 26 1026.4 0 13.9 22.7 30.7 80.0 66.8 227.3
08/05 07:50 10.9 58 5.77 3 17 20 1026.3 0 13.7 22.7 30.6 79.7 66.1 224.6
08/05 07:40 10.5 59 5.72 2.8 15 19 1026.2 0 13.6 22.7 30.6 79.5 65.8 223.5
08/05 07:30 9.8 60 5.57 2.4 15 19 1025.9 0 13.3 22.7 30.2 78.7 64.5 218.8
08/05 07:20 9.6 60 5.5 2.2 13 15 1025.8 0 13.1 22.6 30.1 78.2 63.7 216.3
08/05 07:10 9.6 61 5.59 2.5 13 13 1025.7 0 13.3 22.7 30.4 79.1 64.9 220.2
08/05 07:00 9.1 62 5.5 2.2 7 9 1025.6 0 13.2 22.7 30.2 78.6 64.1 217.6
08/05 06:50 9.1 62 5.5 2.2 7 7 1025.6 0 13.2 22.7 30.2 78.6 64.1 217.6
08/05 06:40 9 63 5.56 2.3 6 7 1025.5 0 13.3 22.8 30.5 79.3 65.0 220.5
08/05 06:30 8.8 64 5.57 2.4 7 9 1025.3 0 13.3 22.9 30.6 79.6 65.2 221.4
08/05 06:20 8.7 64 5.54 2.3 6 7 1025.2 0 13.3 22.9 30.5 79.4 64.9 220.4
08/05 06:10 9 63 5.56 2.3 7 9 1025 0 13.3 22.8 30.5 79.3 64.9 220.4
08/05 06:00 9.4 63 5.7 2.7 7 9 1025 0 13.6 22.9 30.9 80.3 66.4 225.5
08/05 05:50 9.3 63 5.66 2.6 7 9 1025 0 13.5 22.9 30.7 80.0 66.0 224.0
08/05 05:40 9.3 63 5.66 2.6 9 9 1024.9 0 13.5 22.9 30.7 80.0 65.9 224.0
08/05 05:30 9.2 64 5.72 2.8 2 7 1024.9 0 13.6 23.0 31.0 80.7 66.8 226.9
08/05 05:20 9.2 64 5.72 2.8 0 0 1024.9 0 13.6 23.0 31.0 80.7 66.8 226.9
08/05 05:10 9.1 65 5.77 2.9 0 0 1024.9 0 13.7 23.1 31.2 81.3 67.5 229.4
08/05 05:00 9.4 64 5.79 2.9 4 7 1024.8 0 13.8 23.1 31.2 81.2 67.5 229.4
08/05 04:50 9.5 63 5.74 2.8 7 7 1024.8 0 13.7 23.0 31.0 80.6 66.8 226.9
08/05 04:40 9.7 62 5.72 2.8 0 6 1024.8 0 13.6 22.9 30.8 80.2 66.4 225.5
08/05 04:30 9.8 62 5.75 2.9 7 11 1024.9 0 13.7 22.9 30.9 80.4 66.7 226.5
08/05 04:20 10 61 5.73 2.8 9 11 1024.9 0 13.6 22.8 30.7 80.0 66.2 225.1
08/05 04:10 10.3 60 5.75 2.9 7 9 1024.9 0 13.7 22.8 30.7 79.9 66.2 225.1
08/05 04:00 10.5 60 5.82 3.1 7 11 1024.9 0 13.8 22.8 30.9 80.4 66.9 227.6
08/05 03:50 10.8 59 5.83 3.1 7 7 1025 0 13.8 22.8 30.8 80.2 66.8 227.2
08/05 03:40 11.1 58 5.84 3.2 6 6 1025.1 0 13.8 22.7 30.7 80.1 66.7 226.9
08/05 03:30 11 58 5.81 3.1 6 7 1025.1 0 13.8 22.7 30.7 79.9 66.4 225.8
08/05 03:20 11.3 58 5.92 3.3 6 6 1025.1 0 14.0 22.8 31.0 80.7 67.5 229.8
08/05 03:10 11.2 58 5.88 3.3 6 7 1025.1 0 13.9 22.8 30.9 80.4 67.1 228.3
08/05 03:00 11.3 57 5.82 3.1 7 11 1025.2 0 13.8 22.6 30.6 79.7 66.3 225.4
08/05 02:50 11.6 57 5.93 3.4 7 9 1025.2 0 14.0 22.7 30.9 80.5 67.4 229.4
08/05 02:40 11.7 56 5.86 3.2 7 9 1025.3 0 13.8 22.6 30.6 79.7 66.5 226.1
08/05 02:30 12.1 55 5.9 3.3 11 13 1025.3 0 13.9 22.6 30.6 79.7 66.6 226.7
08/05 02:20 12.4 54 5.9 3.4 11 13 1025.3 0 13.9 22.5 30.5 79.4 66.4 225.8
08/05 02:10 12.7 54 6.01 3.6 13 17 1025.3 0 14.1 22.6 30.8 80.2 67.5 229.7
08/05 02:00 13 53 6.01 3.7 13 17 1025.3 0 14.1 22.5 30.7 79.9 67.2 228.9
08/05 01:50 13.2 52 5.97 3.6 11 13 1025.5 0 14.0 22.4 30.5 79.3 66.6 226.6
08/05 01:40 13.2 52 5.97 3.6 15 17 1025.5 0 14.0 22.4 30.5 79.3 66.6 226.6
08/05 01:30 13.5 52 6.08 3.8 17 26 1025.5 0 14.2 22.5 30.7 80.1 67.6 230.5
08/05 01:20 13.4 52 6.05 3.8 17 19 1025.6 0 14.2 22.5 30.7 79.9 67.4 229.5
08/05 01:10 13.6 51 6 3.7 17 19 1025.6 0 14.1 22.4 30.4 79.2 66.6 226.8
08/05 01:00 13.6 51 6 3.7 17 22 1025.5 0 14.1 22.4 30.4 79.2 66.6 226.8
08/05 00:50 13.7 51 6.04 3.8 17 20 1025.6 0 14.1 22.4 30.5 79.5 67.0 228.2
08/05 00:40 13.6 51 6 3.7 13 19 1025.7 0 14.1 22.4 30.4 79.2 66.6 226.8
08/05 00:30 13.8 51 6.08 3.9 19 26 1025.6 0 14.2 22.4 30.6 79.8 67.4 229.6
08/05 00:20 13.7 51 6.04 3.8 17 20 1025.7 0 14.1 22.4 30.5 79.5 67.0 228.2
08/05 00:10 13.9 51 6.11 3.9 19 24 1025.7 0 14.3 22.5 30.7 80.0 67.7 230.6
08/05 00:00 13.9 51 6.11 3.9 17 26 1025.6 0 14.3 22.5 30.7 80.0 67.7 230.6
07/05 23:50 14 51 6.15 4 17 20 1025.7 0 14.4 22.5 30.8 80.3 68.1 232.1
07/05 23:40 14.1 50 6.07 3.8 20 26 1025.8 0 14.2 22.4 30.5 79.4 67.0 228.4
07/05 23:30 14.3 50 6.14 4 20 28 1025.7 0 14.3 22.4 30.7 79.9 67.7 230.8
07/05 23:20 14.4 49 6.06 3.8 19 28 1025.8 0 14.2 22.3 30.3 79.0 66.7 227.1
07/05 23:10 14.6 49 6.13 4 22 26 1025.7 0 14.3 22.3 30.5 79.5 67.3 229.5
07/05 23:00 14.6 49 6.13 4 20 26 1025.7 0 14.3 22.3 30.5 79.5 67.3 229.5
07/05 22:50 14.8 48 6.08 3.9 22 26 1025.8 0 14.2 22.2 30.3 78.8 66.6 226.8
07/05 22:40 14.9 48 6.12 4 22 24 1025.8 0 14.3 22.2 30.4 79.1 67.0 228.2
07/05 22:30 14.9 48 6.12 4 20 30 1025.7 0 14.3 22.2 30.4 79.1 66.9 228.2
07/05 22:20 14.9 47 5.99 3.7 20 22 1025.8 0 14.0 22.0 29.9 77.9 65.4 222.8
07/05 22:10 15.1 47 6.06 3.9 19 24 1025.7 0 14.1 22.1 30.1 78.3 66.1 225.2
07/05 22:00 15.1 47 6.06 3.9 20 26 1025.6 0 14.1 22.1 30.1 78.3 66.1 225.1
07/05 21:50 15.3 47 6.14 4.1 17 20 1025.7 0 14.3 22.2 30.3 78.9 66.9 227.9
07/05 21:40 15.5 46 6.08 3.9 20 26 1025.7 0 14.2 22.0 30.0 78.1 66.0 224.9
07/05 21:30 15.7 46 6.15 4.1 22 30 1025.5 0 14.3 22.1 30.2 78.6 66.6 227.2
07/05 21:20 15.8 46 6.19 4.2 22 28 1025.5 0 14.4 22.1 30.3 78.9 67.0 228.6
07/05 21:10 16 45 6.13 4.1 26 28 1025.3 0 14.3 22.0 30.0 78.1 66.1 225.5
07/05 21:00 16.2 45 6.21 4.3 24 33 1025.3 0 14.4 22.0 30.2 78.7 66.9 228.2
07/05 20:50 16.2 44 6.07 3.9 24 26 1025.2 0 14.1 21.8 29.7 77.3 65.3 222.4
07/05 20:40 16.5 44 6.18 4.2 22 28 1025.1 0 14.3 21.9 30.0 78.1 66.3 226.1
07/05 20:30 16.7 43 6.11 4.1 26 33 1025 0 14.2 21.8 29.7 77.2 65.3 222.7
07/05 20:20 16.9 43 6.18 4.3 28 32 1024.9 0 14.3 21.8 29.8 77.7 66.0 225.0
07/05 20:10 17.1 43 6.26 4.4 26 35 1024.8 0 14.5 21.9 30.0 78.2 66.7 227.7
07/05 20:00 17.1 42 6.11 4.1 22 30 1024.8 0 14.2 21.7 29.5 76.8 65.0 221.6
07/05 19:50 17.4 42 6.22 4.4 28 33 1024.7 0 14.4 21.7 29.8 77.6 66.0 225.2
07/05 19:40 17.4 41 6.08 4 20 24 1024.6 0 14.1 21.5 29.3 76.2 64.4 219.5
07/05 19:30 17.4 41 6.08 4 19 26 1024.4 0 14.1 21.5 29.3 76.2 64.4 219.5
07/05 19:20 17.7 40 6.03 3.9 19 24 1024.4 0 14.0 21.4 29.0 75.5 63.5 216.6
07/05 19:10 18 38 5.84 3.5 20 26 1024.3 0 13.6 21.1 28.2 73.5 61.1 208.2
07/05 19:00 18.3 36 5.63 3 24 33 1024.1 0 13.1 20.7 27.4 71.3 58.6 199.1
07/05 18:50 18.4 36 5.66 3.1 22 26 1024.1 0 13.2 20.7 27.5 71.4 58.8 200.1
07/05 18:40 18.6 36 5.73 3.3 24 32 1024 0 13.3 20.8 27.6 71.9 59.4 202.3
07/05 18:30 18.7 36 5.76 3.3 22 33 1023.8 0 13.4 20.8 27.7 72.1 59.7 203.2

Last Refresh: 08-May-2026 11:03:49

Bureau of Meteorology